sensor_id;sensor_type;location;lat;lon;timestamp;temperature;humidity
2729;DHT22;1372;47.956;7.830;2022-09-27T00:01:27;12.60;99.90
2729;DHT22;1372;47.956;7.830;2022-09-27T00:03:59;12.70;99.90
2729;DHT22;1372;47.956;7.830;2022-09-27T00:06:29;12.70;99.90
2729;DHT22;1372;47.956;7.830;2022-09-27T00:08:59;12.80;99.90
2729;DHT22;1372;47.956;7.830;2022-09-27T00:11:29;12.70;99.90
2729;DHT22;1372;47.956;7.830;2022-09-27T00:14:05;12.70;99.90
2729;DHT22;1372;47.956;7.830;2022-09-27T00:16:36;12.70;99.90
2729;DHT22;1372;47.956;7.830;2022-09-27T00:19:10;12.70;99.90
2729;DHT22;1372;47.956;7.830;2022-09-27T00:21:41;12.80;99.90
2729;DHT22;1372;47.956;7.830;2022-09-27T00:24:11;12.70;99.90
2729;DHT22;1372;47.956;7.830;2022-09-27T00:26:40;12.60;99.90
2729;DHT22;1372;47.956;7.830;2022-09-27T00:29:11;12.60;99.90
2729;DHT22;1372;47.956;7.830;2022-09-27T00:31:40;12.60;99.90
2729;DHT22;1372;47.956;7.830;2022-09-27T00:34:17;12.50;99.90
2729;DHT22;1372;47.956;7.830;2022-09-27T00:36:48;12.60;99.90
2729;DHT22;1372;47.956;7.830;2022-09-27T00:39:17;12.60;99.90
2729;DHT22;1372;47.956;7.830;2022-09-27T00:41:46;12.60;99.90
2729;DHT22;1372;47.956;7.830;2022-09-27T00:47:49;12.60;99.90
2729;DHT22;1372;47.956;7.830;2022-09-27T00:50:28;12.50;99.90
2729;DHT22;1372;47.956;7.830;2022-09-27T00:53:08;12.60;99.90
2729;DHT22;1372;47.956;7.830;2022-09-27T00:55:41;12.60;99.90
2729;DHT22;1372;47.956;7.830;2022-09-27T00:58:14;12.60;99.90
2729;DHT22;1372;47.956;7.830;2022-09-27T01:00:51;12.50;99.90
2729;DHT22;1372;47.956;7.830;2022-09-27T01:03:26;12.40;99.90
2729;DHT22;1372;47.956;7.830;2022-09-27T01:06:00;12.50;99.90
2729;DHT22;1372;47.956;7.830;2022-09-27T01:08:29;12.40;99.90
2729;DHT22;1372;47.956;7.830;2022-09-27T01:11:14;12.40;99.90
2729;DHT22;1372;47.956;7.830;2022-09-27T01:14:00;12.40;99.90
2729;DHT22;1372;47.956;7.830;2022-09-27T01:16:42;12.50;99.90
2729;DHT22;1372;47.956;7.830;2022-09-27T01:19:26;12.50;99.90
2729;DHT22;1372;47.956;7.830;2022-09-27T01:22:08;12.40;99.90
2729;DHT22;1372;47.956;7.830;2022-09-27T01:25:02;12.40;99.90
2729;DHT22;1372;47.956;7.830;2022-09-27T01:28:04;12.50;99.90
2729;DHT22;1372;47.956;7.830;2022-09-27T01:30:55;12.40;99.90
2729;DHT22;1372;47.956;7.830;2022-09-27T01:33:39;12.30;99.90
2729;DHT22;1372;47.956;7.830;2022-09-27T01:36:19;12.40;99.90
2729;DHT22;1372;47.956;7.830;2022-09-27T01:39:15;12.40;99.90
2729;DHT22;1372;47.956;7.830;2022-09-27T01:41:55;12.30;99.90
2729;DHT22;1372;47.956;7.830;2022-09-27T01:44:35;12.30;99.90
2729;DHT22;1372;47.956;7.830;2022-09-27T01:47:13;12.30;99.90
2729;DHT22;1372;47.956;7.830;2022-09-27T01:49:47;12.30;99.90
2729;DHT22;1372;47.956;7.830;2022-09-27T01:52:23;12.30;99.90
2729;DHT22;1372;47.956;7.830;2022-09-27T01:54:59;12.30;99.90
2729;DHT22;1372;47.956;7.830;2022-09-27T01:57:34;12.30;99.90
2729;DHT22;1372;47.956;7.830;2022-09-27T02:00:08;12.30;99.90
2729;DHT22;1372;47.956;7.830;2022-09-27T02:02:44;12.20;99.90
2729;DHT22;1372;47.956;7.830;2022-09-27T02:05:16;12.10;99.90
2729;DHT22;1372;47.956;7.830;2022-09-27T02:07:50;12.20;99.90
2729;DHT22;1372;47.956;7.830;2022-09-27T02:10:22;12.10;99.90
2729;DHT22;1372;47.956;7.830;2022-09-27T02:12:56;12.10;99.90
2729;DHT22;1372;47.956;7.830;2022-09-27T02:15:33;12.10;99.90
2729;DHT22;1372;47.956;7.830;2022-09-27T02:18:12;12.10;99.90
2729;DHT22;1372;47.956;7.830;2022-09-27T02:20:48;12.10;99.90
2729;DHT22;1372;47.956;7.830;2022-09-27T02:23:22;12.10;99.90
2729;DHT22;1372;47.956;7.830;2022-09-27T02:25:56;12.00;99.90
2729;DHT22;1372;47.956;7.830;2022-09-27T02:28:29;12.00;99.90
2729;DHT22;1372;47.956;7.830;2022-09-27T02:30:59;11.90;99.90
2729;DHT22;1372;47.956;7.830;2022-09-27T02:33:35;12.00;99.90
2729;DHT22;1372;47.956;7.830;2022-09-27T02:36:07;12.00;99.90
2729;DHT22;1372;47.956;7.830;2022-09-27T02:38:36;12.00;99.90
2729;DHT22;1372;47.956;7.830;2022-09-27T02:41:12;11.90;99.90
2729;DHT22;1372;47.956;7.830;2022-09-27T02:43:44;11.80;99.90
2729;DHT22;1372;47.956;7.830;2022-09-27T02:46:27;11.80;99.90
2729;DHT22;1372;47.956;7.830;2022-09-27T02:49:12;11.80;99.90
2729;DHT22;1372;47.956;7.830;2022-09-27T02:51:57;11.80;99.90
2729;DHT22;1372;47.956;7.830;2022-09-27T02:54:34;11.80;99.90
2729;DHT22;1372;47.956;7.830;2022-09-27T02:57:16;11.80;99.90
2729;DHT22;1372;47.956;7.830;2022-09-27T02:59:57;11.70;99.90
2729;DHT22;1372;47.956;7.830;2022-09-27T03:02:35;11.70;99.90
2729;DHT22;1372;47.956;7.830;2022-09-27T03:05:16;11.80;99.90
2729;DHT22;1372;47.956;7.830;2022-09-27T03:07:48;11.80;99.90
2729;DHT22;1372;47.956;7.830;2022-09-27T03:10:18;11.80;99.90
2729;DHT22;1372;47.956;7.830;2022-09-27T03:12:51;11.80;99.90
2729;DHT22;1372;47.956;7.830;2022-09-27T03:15:20;11.80;99.90
2729;DHT22;1372;47.956;7.830;2022-09-27T03:17:49;11.80;99.90
2729;DHT22;1372;47.956;7.830;2022-09-27T03:20:19;11.90;99.90
2729;DHT22;1372;47.956;7.830;2022-09-27T03:22:48;11.90;99.90
2729;DHT22;1372;47.956;7.830;2022-09-27T03:25:17;11.90;99.90
2729;DHT22;1372;47.956;7.830;2022-09-27T03:27:47;11.90;99.90
2729;DHT22;1372;47.956;7.830;2022-09-27T03:30:20;11.80;99.90
2729;DHT22;1372;47.956;7.830;2022-09-27T03:32:52;11.80;99.90
2729;DHT22;1372;47.956;7.830;2022-09-27T03:35:22;11.80;99.90
2729;DHT22;1372;47.956;7.830;2022-09-27T03:37:51;11.80;99.90
2729;DHT22;1372;47.956;7.830;2022-09-27T03:40:20;11.70;99.90
2729;DHT22;1372;47.956;7.830;2022-09-27T03:42:49;11.70;99.90
2729;DHT22;1372;47.956;7.830;2022-09-27T03:45:18;11.80;99.90
2729;DHT22;1372;47.956;7.830;2022-09-27T03:47:46;11.70;99.90
2729;DHT22;1372;47.956;7.830;2022-09-27T03:50:16;11.70;99.90
2729;DHT22;1372;47.956;7.830;2022-09-27T03:52:46;11.70;99.90
2729;DHT22;1372;47.956;7.830;2022-09-27T03:55:15;11.70;99.90
2729;DHT22;1372;47.956;7.830;2022-09-27T03:57:44;11.70;99.90
2729;DHT22;1372;47.956;7.830;2022-09-27T04:00:13;11.70;99.90
2729;DHT22;1372;47.956;7.830;2022-09-27T04:02:43;11.60;99.90
2729;DHT22;1372;47.956;7.830;2022-09-27T04:05:14;11.70;99.90
2729;DHT22;1372;47.956;7.830;2022-09-27T04:07:47;11.60;99.90
2729;DHT22;1372;47.956;7.830;2022-09-27T04:10:41;11.60;99.90
2729;DHT22;1372;47.956;7.830;2022-09-27T04:13:35;11.60;99.90
2729;DHT22;1372;47.956;7.830;2022-09-27T04:16:04;11.70;99.90
2729;DHT22;1372;47.956;7.830;2022-09-27T04:18:36;11.70;99.90
2729;DHT22;1372;47.956;7.830;2022-09-27T04:21:05;11.60;99.90
2729;DHT22;1372;47.956;7.830;2022-09-27T04:23:36;11.60;99.90
2729;DHT22;1372;47.956;7.830;2022-09-27T04:26:05;11.50;99.90
2729;DHT22;1372;47.956;7.830;2022-09-27T04:28:34;11.50;99.90
2729;DHT22;1372;47.956;7.830;2022-09-27T04:31:03;11.40;99.90
2729;DHT22;1372;47.956;7.830;2022-09-27T04:33:32;11.50;99.90
2729;DHT22;1372;47.956;7.830;2022-09-27T04:36:01;11.50;99.90
2729;DHT22;1372;47.956;7.830;2022-09-27T04:38:52;11.50;99.90
2729;DHT22;1372;47.956;7.830;2022-09-27T04:41:21;11.40;99.90
2729;DHT22;1372;47.956;7.830;2022-09-27T04:43:52;11.40;99.90
2729;DHT22;1372;47.956;7.830;2022-09-27T04:46:25;11.40;99.90
2729;DHT22;1372;47.956;7.830;2022-09-27T04:48:58;11.40;99.90
2729;DHT22;1372;47.956;7.830;2022-09-27T04:51:28;11.40;99.90
2729;DHT22;1372;47.956;7.830;2022-09-27T04:54:01;11.30;99.90
2729;DHT22;1372;47.956;7.830;2022-09-27T04:56:31;11.30;99.90
2729;DHT22;1372;47.956;7.830;2022-09-27T04:58:59;11.30;99.90
2729;DHT22;1372;47.956;7.830;2022-09-27T05:08:17;11.20;99.90
2729;DHT22;1372;47.956;7.830;2022-09-27T05:10:48;11.20;99.90
2729;DHT22;1372;47.956;7.830;2022-09-27T05:13:17;11.20;99.90
2729;DHT22;1372;47.956;7.830;2022-09-27T05:15:45;11.20;99.90
2729;DHT22;1372;47.956;7.830;2022-09-27T05:18:14;11.20;99.90
2729;DHT22;1372;47.956;7.830;2022-09-27T05:20:44;11.30;99.90
2729;DHT22;1372;47.956;7.830;2022-09-27T05:23:12;11.30;99.90
2729;DHT22;1372;47.956;7.830;2022-09-27T05:25:41;11.30;99.90
2729;DHT22;1372;47.956;7.830;2022-09-27T05:28:12;11.30;99.90
2729;DHT22;1372;47.956;7.830;2022-09-27T05:30:41;11.20;99.90
2729;DHT22;1372;47.956;7.830;2022-09-27T05:33:10;11.20;99.90
2729;DHT22;1372;47.956;7.830;2022-09-27T05:35:38;11.20;99.90
2729;DHT22;1372;47.956;7.830;2022-09-27T05:38:12;11.10;99.90
2729;DHT22;1372;47.956;7.830;2022-09-27T05:40:41;11.20;99.90
2729;DHT22;1372;47.956;7.830;2022-09-27T05:43:12;11.10;99.90
2729;DHT22;1372;47.956;7.830;2022-09-27T05:45:42;11.10;99.90
2729;DHT22;1372;47.956;7.830;2022-09-27T05:48:11;11.00;99.90
2729;DHT22;1372;47.956;7.830;2022-09-27T05:50:43;11.00;99.90
2729;DHT22;1372;47.956;7.830;2022-09-27T05:53:13;11.00;99.90
2729;DHT22;1372;47.956;7.830;2022-09-27T05:55:42;10.90;99.90
2729;DHT22;1372;47.956;7.830;2022-09-27T05:58:13;10.90;99.90
2729;DHT22;1372;47.956;7.830;2022-09-27T06:00:44;10.90;99.90
2729;DHT22;1372;47.956;7.830;2022-09-27T06:03:13;10.90;99.90
2729;DHT22;1372;47.956;7.830;2022-09-27T06:05:42;10.80;99.90
2729;DHT22;1372;47.956;7.830;2022-09-27T06:08:16;10.90;99.90
2729;DHT22;1372;47.956;7.830;2022-09-27T06:10:46;10.90;99.90
2729;DHT22;1372;47.956;7.830;2022-09-27T06:13:17;10.90;99.90
2729;DHT22;1372;47.956;7.830;2022-09-27T06:15:48;10.80;99.90
2729;DHT22;1372;47.956;7.830;2022-09-27T06:18:20;10.90;99.90
2729;DHT22;1372;47.956;7.830;2022-09-27T06:20:52;10.90;99.90
2729;DHT22;1372;47.956;7.830;2022-09-27T06:23:22;10.90;99.90
2729;DHT22;1372;47.956;7.830;2022-09-27T06:25:52;11.00;99.90
2729;DHT22;1372;47.956;7.830;2022-09-27T06:28:24;10.90;99.90
2729;DHT22;1372;47.956;7.830;2022-09-27T06:30:53;10.90;99.90
2729;DHT22;1372;47.956;7.830;2022-09-27T06:33:22;11.00;99.90
2729;DHT22;1372;47.956;7.830;2022-09-27T06:35:51;11.00;99.90
2729;DHT22;1372;47.956;7.830;2022-09-27T06:38:21;11.10;99.90
2729;DHT22;1372;47.956;7.830;2022-09-27T06:40:51;11.10;99.90
2729;DHT22;1372;47.956;7.830;2022-09-27T06:43:20;11.10;99.90
2729;DHT22;1372;47.956;7.830;2022-09-27T06:45:50;11.10;99.90
2729;DHT22;1372;47.956;7.830;2022-09-27T06:48:20;11.10;99.90
2729;DHT22;1372;47.956;7.830;2022-09-27T06:50:48;11.20;99.90
2729;DHT22;1372;47.956;7.830;2022-09-27T06:53:17;11.10;99.90
2729;DHT22;1372;47.956;7.830;2022-09-27T06:55:46;11.00;99.90
2729;DHT22;1372;47.956;7.830;2022-09-27T06:58:17;10.90;99.90
2729;DHT22;1372;47.956;7.830;2022-09-27T07:01:06;10.90;99.90
2729;DHT22;1372;47.956;7.830;2022-09-27T07:03:35;10.90;99.90
2729;DHT22;1372;47.956;7.830;2022-09-27T07:06:15;10.80;99.90
2729;DHT22;1372;47.956;7.830;2022-09-27T07:08:49;10.90;99.90
2729;DHT22;1372;47.956;7.830;2022-09-27T07:11:19;10.90;99.90
2729;DHT22;1372;47.956;7.830;2022-09-27T07:13:49;10.90;99.90
2729;DHT22;1372;47.956;7.830;2022-09-27T07:16:20;11.00;99.90
2729;DHT22;1372;47.956;7.830;2022-09-27T07:18:50;10.90;99.90
2729;DHT22;1372;47.956;7.830;2022-09-27T07:21:19;11.00;99.90
2729;DHT22;1372;47.956;7.830;2022-09-27T07:23:48;11.00;99.90
2729;DHT22;1372;47.956;7.830;2022-09-27T07:26:17;11.00;99.90
2729;DHT22;1372;47.956;7.830;2022-09-27T07:28:46;10.90;99.90
2729;DHT22;1372;47.956;7.830;2022-09-27T07:31:15;11.00;99.90
2729;DHT22;1372;47.956;7.830;2022-09-27T07:33:47;11.00;99.90
2729;DHT22;1372;47.956;7.830;2022-09-27T07:36:17;11.10;99.90
2729;DHT22;1372;47.956;7.830;2022-09-27T07:38:46;11.10;99.90
2729;DHT22;1372;47.956;7.830;2022-09-27T07:41:15;11.10;99.90
2729;DHT22;1372;47.956;7.830;2022-09-27T07:43:43;11.00;99.90
2729;DHT22;1372;47.956;7.830;2022-09-27T07:46:12;11.00;99.90
2729;DHT22;1372;47.956;7.830;2022-09-27T07:48:43;11.10;99.90
2729;DHT22;1372;47.956;7.830;2022-09-27T07:51:14;11.20;99.90
2729;DHT22;1372;47.956;7.830;2022-09-27T07:53:43;11.30;99.90
2729;DHT22;1372;47.956;7.830;2022-09-27T07:56:12;11.30;99.90
2729;DHT22;1372;47.956;7.830;2022-09-27T07:58:44;11.40;99.90
2729;DHT22;1372;47.956;7.830;2022-09-27T08:01:12;11.40;99.90
2729;DHT22;1372;47.956;7.830;2022-09-27T08:03:42;11.40;99.90
2729;DHT22;1372;47.956;7.830;2022-09-27T08:06:11;11.50;99.90
2729;DHT22;1372;47.956;7.830;2022-09-27T08:08:41;11.50;99.90
2729;DHT22;1372;47.956;7.830;2022-09-27T08:11:11;11.50;99.90
2729;DHT22;1372;47.956;7.830;2022-09-27T08:13:44;11.60;99.90
2729;DHT22;1372;47.956;7.830;2022-09-27T08:16:16;11.60;99.90
2729;DHT22;1372;47.956;7.830;2022-09-27T08:18:46;11.60;99.90
2729;DHT22;1372;47.956;7.830;2022-09-27T08:21:25;11.60;99.90
2729;DHT22;1372;47.956;7.830;2022-09-27T08:23:55;11.60;99.90
2729;DHT22;1372;47.956;7.830;2022-09-27T08:26:26;11.60;99.90
2729;DHT22;1372;47.956;7.830;2022-09-27T08:28:56;11.50;99.90
2729;DHT22;1372;47.956;7.830;2022-09-27T08:31:28;11.50;99.90
2729;DHT22;1372;47.956;7.830;2022-09-27T08:33:56;11.50;99.90
2729;DHT22;1372;47.956;7.830;2022-09-27T08:36:30;11.40;99.90
2729;DHT22;1372;47.956;7.830;2022-09-27T08:39:04;11.40;99.90
2729;DHT22;1372;47.956;7.830;2022-09-27T08:41:36;11.30;99.90
2729;DHT22;1372;47.956;7.830;2022-09-27T08:44:13;11.30;99.90
2729;DHT22;1372;47.956;7.830;2022-09-27T08:46:54;11.30;99.90
2729;DHT22;1372;47.956;7.830;2022-09-27T08:49:31;11.30;99.90
2729;DHT22;1372;47.956;7.830;2022-09-27T08:52:04;11.40;99.90
2729;DHT22;1372;47.956;7.830;2022-09-27T08:54:39;11.40;99.90
2729;DHT22;1372;47.956;7.830;2022-09-27T08:57:10;11.30;99.90
2729;DHT22;1372;47.956;7.830;2022-09-27T08:59:42;11.40;99.90
2729;DHT22;1372;47.956;7.830;2022-09-27T09:02:16;11.40;99.90
2729;DHT22;1372;47.956;7.830;2022-09-27T09:04:51;11.40;99.90
2729;DHT22;1372;47.956;7.830;2022-09-27T09:07:39;11.30;99.90
2729;DHT22;1372;47.956;7.830;2022-09-27T09:10:28;11.20;99.90
2729;DHT22;1372;47.956;7.830;2022-09-27T09:13:31;11.30;99.90
2729;DHT22;1372;47.956;7.830;2022-09-27T09:16:12;11.30;99.90
2729;DHT22;1372;47.956;7.830;2022-09-27T09:18:59;11.40;99.90
2729;DHT22;1372;47.956;7.830;2022-09-27T09:21:51;11.30;99.90
2729;DHT22;1372;47.956;7.830;2022-09-27T09:24:42;11.30;99.90
2729;DHT22;1372;47.956;7.830;2022-09-27T09:27:29;11.30;99.90
2729;DHT22;1372;47.956;7.830;2022-09-27T09:30:19;11.50;99.90
2729;DHT22;1372;47.956;7.830;2022-09-27T09:33:10;11.50;99.90
2729;DHT22;1372;47.956;7.830;2022-09-27T09:35:50;11.60;99.90
2729;DHT22;1372;47.956;7.830;2022-09-27T09:38:32;11.50;99.90
2729;DHT22;1372;47.956;7.830;2022-09-27T09:41:08;11.40;99.90
2729;DHT22;1372;47.956;7.830;2022-09-27T09:43:43;11.40;99.90
2729;DHT22;1372;47.956;7.830;2022-09-27T09:46:19;11.40;99.90
2729;DHT22;1372;47.956;7.830;2022-09-27T09:48:52;11.30;99.90
2729;DHT22;1372;47.956;7.830;2022-09-27T09:51:27;11.30;99.90
2729;DHT22;1372;47.956;7.830;2022-09-27T09:54:05;11.40;99.90
2729;DHT22;1372;47.956;7.830;2022-09-27T09:56:39;11.50;99.90
2729;DHT22;1372;47.956;7.830;2022-09-27T09:59:19;11.60;99.90
2729;DHT22;1372;47.956;7.830;2022-09-27T10:01:59;11.70;99.90
2729;DHT22;1372;47.956;7.830;2022-09-27T10:04:44;11.70;99.90
2729;DHT22;1372;47.956;7.830;2022-09-27T10:07:20;11.70;99.90
2729;DHT22;1372;47.956;7.830;2022-09-27T10:09:51;11.80;99.90
2729;DHT22;1372;47.956;7.830;2022-09-27T10:12:21;11.80;99.90
2729;DHT22;1372;47.956;7.830;2022-09-27T10:14:56;11.70;99.90
2729;DHT22;1372;47.956;7.830;2022-09-27T10:17:33;11.80;99.90
2729;DHT22;1372;47.956;7.830;2022-09-27T10:20:04;11.80;99.90
2729;DHT22;1372;47.956;7.830;2022-09-27T10:22:35;11.80;99.90
2729;DHT22;1372;47.956;7.830;2022-09-27T10:25:07;11.80;99.90
2729;DHT22;1372;47.956;7.830;2022-09-27T10:27:40;11.90;99.90
2729;DHT22;1372;47.956;7.830;2022-09-27T10:30:23;12.00;99.90
2729;DHT22;1372;47.956;7.830;2022-09-27T10:32:56;12.00;99.90
2729;DHT22;1372;47.956;7.830;2022-09-27T10:35:36;12.10;99.90
2729;DHT22;1372;47.956;7.830;2022-09-27T10:38:21;12.00;99.90
2729;DHT22;1372;47.956;7.830;2022-09-27T10:40:54;12.10;99.90
2729;DHT22;1372;47.956;7.830;2022-09-27T10:43:29;12.10;99.90
2729;DHT22;1372;47.956;7.830;2022-09-27T10:46:05;12.20;99.90
2729;DHT22;1372;47.956;7.830;2022-09-27T10:48:40;12.20;99.90
2729;DHT22;1372;47.956;7.830;2022-09-27T10:51:23;12.10;99.90
2729;DHT22;1372;47.956;7.830;2022-09-27T10:53:55;12.10;99.90
2729;DHT22;1372;47.956;7.830;2022-09-27T10:56:28;12.10;99.90
2729;DHT22;1372;47.956;7.830;2022-09-27T10:58:59;12.10;99.90
2729;DHT22;1372;47.956;7.830;2022-09-27T11:01:42;12.10;99.90
2729;DHT22;1372;47.956;7.830;2022-09-27T11:04:19;12.20;99.90
2729;DHT22;1372;47.956;7.830;2022-09-27T11:06:51;12.20;99.90
2729;DHT22;1372;47.956;7.830;2022-09-27T11:09:22;12.20;99.90
2729;DHT22;1372;47.956;7.830;2022-09-27T11:12:08;12.20;99.90
2729;DHT22;1372;47.956;7.830;2022-09-27T11:14:38;12.20;99.90
2729;DHT22;1372;47.956;7.830;2022-09-27T11:17:13;12.20;99.90
2729;DHT22;1372;47.956;7.830;2022-09-27T11:20:00;12.30;99.90
2729;DHT22;1372;47.956;7.830;2022-09-27T11:22:56;12.30;99.90
2729;DHT22;1372;47.956;7.830;2022-09-27T11:25:54;12.20;99.90
2729;DHT22;1372;47.956;7.830;2022-09-27T11:28:39;12.20;99.90
2729;DHT22;1372;47.956;7.830;2022-09-27T11:31:17;12.40;99.90
2729;DHT22;1372;47.956;7.830;2022-09-27T11:34:12;12.40;99.90
2729;DHT22;1372;47.956;7.830;2022-09-27T11:37:02;12.40;99.90
2729;DHT22;1372;47.956;7.830;2022-09-27T11:39:48;12.30;99.90
2729;DHT22;1372;47.956;7.830;2022-09-27T11:42:40;12.30;99.90
2729;DHT22;1372;47.956;7.830;2022-09-27T11:45:25;12.30;99.90
2729;DHT22;1372;47.956;7.830;2022-09-27T11:48:36;12.30;99.90
2729;DHT22;1372;47.956;7.830;2022-09-27T11:51:26;12.40;99.90
2729;DHT22;1372;47.956;7.830;2022-09-27T11:54:24;12.20;99.90
2729;DHT22;1372;47.956;7.830;2022-09-27T11:57:03;12.30;99.90
2729;DHT22;1372;47.956;7.830;2022-09-27T12:00:08;12.30;99.90
2729;DHT22;1372;47.956;7.830;2022-09-27T12:03:02;12.30;99.90
2729;DHT22;1372;47.956;7.830;2022-09-27T12:05:51;12.30;99.90
2729;DHT22;1372;47.956;7.830;2022-09-27T12:08:41;12.30;99.90
2729;DHT22;1372;47.956;7.830;2022-09-27T12:11:22;12.40;99.90
2729;DHT22;1372;47.956;7.830;2022-09-27T12:13:57;12.50;99.90
2729;DHT22;1372;47.956;7.830;2022-09-27T12:16:27;12.40;99.90
2729;DHT22;1372;47.956;7.830;2022-09-27T12:18:59;12.50;99.90
2729;DHT22;1372;47.956;7.830;2022-09-27T12:21:30;12.60;99.90
2729;DHT22;1372;47.956;7.830;2022-09-27T12:24:02;12.70;99.90
2729;DHT22;1372;47.956;7.830;2022-09-27T12:26:35;12.80;99.90
2729;DHT22;1372;47.956;7.830;2022-09-27T12:29:11;12.80;99.90
2729;DHT22;1372;47.956;7.830;2022-09-27T12:31:46;12.80;99.90
2729;DHT22;1372;47.956;7.830;2022-09-27T12:34:23;12.90;99.90
2729;DHT22;1372;47.956;7.830;2022-09-27T12:36:59;13.00;99.90
2729;DHT22;1372;47.956;7.830;2022-09-27T12:39:41;13.20;99.90
2729;DHT22;1372;47.956;7.830;2022-09-27T12:42:19;13.20;99.90
2729;DHT22;1372;47.956;7.830;2022-09-27T12:44:52;13.10;99.90
2729;DHT22;1372;47.956;7.830;2022-09-27T12:47:37;13.10;99.90
2729;DHT22;1372;47.956;7.830;2022-09-27T12:50:14;13.00;99.90
2729;DHT22;1372;47.956;7.830;2022-09-27T12:52:54;12.90;99.90
2729;DHT22;1372;47.956;7.830;2022-09-27T12:59:08;12.70;99.90
2729;DHT22;1372;47.956;7.830;2022-09-27T13:02:12;12.60;99.90
2729;DHT22;1372;47.956;7.830;2022-09-27T13:05:06;12.60;99.90
2729;DHT22;1372;47.956;7.830;2022-09-27T13:08:08;12.60;99.90
2729;DHT22;1372;47.956;7.830;2022-09-27T13:10:57;12.40;99.90
2729;DHT22;1372;47.956;7.830;2022-09-27T13:13:34;12.30;99.90
2729;DHT22;1372;47.956;7.830;2022-09-27T13:16:07;12.40;99.90
2729;DHT22;1372;47.956;7.830;2022-09-27T13:18:56;12.50;99.90
2729;DHT22;1372;47.956;7.830;2022-09-27T13:21:53;12.50;99.90
2729;DHT22;1372;47.956;7.830;2022-09-27T13:24:45;12.50;99.90
2729;DHT22;1372;47.956;7.830;2022-09-27T13:27:36;12.40;99.90
2729;DHT22;1372;47.956;7.830;2022-09-27T13:33:33;12.40;99.90
2729;DHT22;1372;47.956;7.830;2022-09-27T13:36:26;12.40;99.90
2729;DHT22;1372;47.956;7.830;2022-09-27T13:39:17;12.40;99.90
2729;DHT22;1372;47.956;7.830;2022-09-27T13:42:11;12.40;99.90
2729;DHT22;1372;47.956;7.830;2022-09-27T13:45:08;12.40;99.90
2729;DHT22;1372;47.956;7.830;2022-09-27T13:47:45;12.50;99.90
2729;DHT22;1372;47.956;7.830;2022-09-27T13:50:20;12.40;99.90
2729;DHT22;1372;47.956;7.830;2022-09-27T13:53:01;12.20;99.90
2729;DHT22;1372;47.956;7.830;2022-09-27T13:55:42;12.10;99.90
2729;DHT22;1372;47.956;7.830;2022-09-27T13:58:16;12.00;99.90
2729;DHT22;1372;47.956;7.830;2022-09-27T14:01:13;12.00;99.90
2729;DHT22;1372;47.956;7.830;2022-09-27T14:03:55;12.00;99.90
2729;DHT22;1372;47.956;7.830;2022-09-27T14:06:29;12.00;99.90
2729;DHT22;1372;47.956;7.830;2022-09-27T14:09:03;11.90;99.90
2729;DHT22;1372;47.956;7.830;2022-09-27T14:11:37;11.80;99.90
2729;DHT22;1372;47.956;7.830;2022-09-27T14:14:13;11.80;99.90
2729;DHT22;1372;47.956;7.830;2022-09-27T14:16:45;11.70;99.90
2729;DHT22;1372;47.956;7.830;2022-09-27T14:19:16;11.80;99.90
2729;DHT22;1372;47.956;7.830;2022-09-27T14:21:47;11.90;99.90
2729;DHT22;1372;47.956;7.830;2022-09-27T14:24:28;11.90;99.90
2729;DHT22;1372;47.956;7.830;2022-09-27T14:27:13;11.90;99.90
2729;DHT22;1372;47.956;7.830;2022-09-27T14:29:47;11.80;99.90
2729;DHT22;1372;47.956;7.830;2022-09-27T14:32:24;11.80;99.90
2729;DHT22;1372;47.956;7.830;2022-09-27T14:35:06;11.80;99.90
2729;DHT22;1372;47.956;7.830;2022-09-27T14:37:59;11.80;99.90
2729;DHT22;1372;47.956;7.830;2022-09-27T14:40:53;11.80;99.90
2729;DHT22;1372;47.956;7.830;2022-09-27T14:43:24;11.90;99.90
2729;DHT22;1372;47.956;7.830;2022-09-27T14:45:58;11.90;99.90
2729;DHT22;1372;47.956;7.830;2022-09-27T14:48:31;11.90;99.90
2729;DHT22;1372;47.956;7.830;2022-09-27T14:51:02;11.90;99.90
2729;DHT22;1372;47.956;7.830;2022-09-27T14:53:41;11.90;99.90
2729;DHT22;1372;47.956;7.830;2022-09-27T14:56:14;11.80;99.90
2729;DHT22;1372;47.956;7.830;2022-09-27T14:58:49;11.90;99.90
2729;DHT22;1372;47.956;7.830;2022-09-27T15:01:23;11.80;99.90
2729;DHT22;1372;47.956;7.830;2022-09-27T15:03:53;11.90;99.90
2729;DHT22;1372;47.956;7.830;2022-09-27T15:06:23;11.90;99.90
2729;DHT22;1372;47.956;7.830;2022-09-27T15:08:52;11.90;99.90
2729;DHT22;1372;47.956;7.830;2022-09-27T15:11:23;11.90;99.90
2729;DHT22;1372;47.956;7.830;2022-09-27T15:13:53;12.00;99.90
2729;DHT22;1372;47.956;7.830;2022-09-27T15:16:24;12.00;99.90
2729;DHT22;1372;47.956;7.830;2022-09-27T15:19:14;12.00;99.90
2729;DHT22;1372;47.956;7.830;2022-09-27T15:21:45;11.90;99.90
2729;DHT22;1372;47.956;7.830;2022-09-27T15:24:37;12.00;99.90
2729;DHT22;1372;47.956;7.830;2022-09-27T15:27:17;12.10;99.90
2729;DHT22;1372;47.956;7.830;2022-09-27T15:29:49;12.20;99.90
2729;DHT22;1372;47.956;7.830;2022-09-27T15:32:21;12.30;99.90
2729;DHT22;1372;47.956;7.830;2022-09-27T15:34:52;12.50;99.90
2729;DHT22;1372;47.956;7.830;2022-09-27T15:37:27;12.90;99.90
2729;DHT22;1372;47.956;7.830;2022-09-27T15:43:36;13.20;99.90
2729;DHT22;1372;47.956;7.830;2022-09-27T15:46:35;13.40;99.90
2729;DHT22;1372;47.956;7.830;2022-09-27T15:52:05;13.60;99.90
2729;DHT22;1372;47.956;7.830;2022-09-27T15:54:35;13.40;99.90
2729;DHT22;1372;47.956;7.830;2022-09-27T15:57:05;13.50;99.90
2729;DHT22;1372;47.956;7.830;2022-09-27T15:59:34;13.30;99.90
2729;DHT22;1372;47.956;7.830;2022-09-27T16:02:11;13.10;99.90
2729;DHT22;1372;47.956;7.830;2022-09-27T16:04:45;12.80;99.90
2729;DHT22;1372;47.956;7.830;2022-09-27T16:07:16;12.60;99.90
2729;DHT22;1372;47.956;7.830;2022-09-27T16:09:44;12.50;99.90
2729;DHT22;1372;47.956;7.830;2022-09-27T16:12:15;12.50;99.90
2729;DHT22;1372;47.956;7.830;2022-09-27T16:14:44;12.30;99.90
2729;DHT22;1372;47.956;7.830;2022-09-27T16:17:15;12.20;99.90
2729;DHT22;1372;47.956;7.830;2022-09-27T16:19:43;12.20;99.90
2729;DHT22;1372;47.956;7.830;2022-09-27T16:22:12;12.20;99.90
2729;DHT22;1372;47.956;7.830;2022-09-27T16:24:42;12.10;99.90
2729;DHT22;1372;47.956;7.830;2022-09-27T16:27:11;12.00;99.90
2729;DHT22;1372;47.956;7.830;2022-09-27T16:29:42;12.00;99.90
2729;DHT22;1372;47.956;7.830;2022-09-27T16:32:10;12.00;99.90
2729;DHT22;1372;47.956;7.830;2022-09-27T16:34:46;11.90;99.90
2729;DHT22;1372;47.956;7.830;2022-09-27T16:37:22;11.90;99.90
2729;DHT22;1372;47.956;7.830;2022-09-27T16:40:00;11.90;99.90
2729;DHT22;1372;47.956;7.830;2022-09-27T16:42:31;11.80;99.90
2729;DHT22;1372;47.956;7.830;2022-09-27T16:45:32;11.80;99.90
2729;DHT22;1372;47.956;7.830;2022-09-27T16:48:03;11.80;99.90
2729;DHT22;1372;47.956;7.830;2022-09-27T16:50:31;11.80;99.90
2729;DHT22;1372;47.956;7.830;2022-09-27T16:53:21;11.70;99.90
2729;DHT22;1372;47.956;7.830;2022-09-27T16:55:51;11.60;99.90
2729;DHT22;1372;47.956;7.830;2022-09-27T16:58:29;11.70;99.90
2729;DHT22;1372;47.956;7.830;2022-09-27T17:00:58;11.60;99.90
2729;DHT22;1372;47.956;7.830;2022-09-27T17:03:27;11.60;99.90
2729;DHT22;1372;47.956;7.830;2022-09-27T17:05:59;11.50;99.90
2729;DHT22;1372;47.956;7.830;2022-09-27T17:08:36;11.60;99.90
2729;DHT22;1372;47.956;7.830;2022-09-27T17:11:07;11.60;99.90
2729;DHT22;1372;47.956;7.830;2022-09-27T17:13:35;11.50;99.90
2729;DHT22;1372;47.956;7.830;2022-09-27T17:16:04;11.50;99.90
2729;DHT22;1372;47.956;7.830;2022-09-27T17:18:36;11.60;99.90
2729;DHT22;1372;47.956;7.830;2022-09-27T17:21:06;11.70;99.90